Air Resources Laboratory banner image
Air Resources Laboratory web site National Oceanic and Atmospheric Administration (NOAA)

nd metar


KBIS 131752Z 33020G26KT 10SM OVC024 02/M03 A2994 RMK AO2 PK WND 35030/1736
 SLP153 T00221033 10028 20011 51022=
KDIK 131756Z AUTO 30018G28KT 10SM CLR 02/M04 A2997 RMK AO2 PK WND 30028/1750
 SLP165 T00221039 10022 21006 50010=
KDVL 131756Z AUTO 35014KT 7SM UP BKN008 BKN013 OVC024 M01/M02 A2984 RMK AO2
 UPB21 CIG 004V011 SLP134 P0000 60000 T10061017 10011 21011 51018 FZRANO=
KFAR 131753Z 34017G23KT 10SM OVC011 M02/M03 A2978 RMK AO2 PK WND 35034/1702 CIG
 009V013 SLP098 60000 T10221033 11006 21022 51020=
KGFK 131753Z 35024G33KT 8SM BKN008 OVC016 M03/M04 A2979 RMK AO2 PK WND
 35033/1752 CIG 006V012 SLP100 4/002 931000 933004 60000 I6001 T10331044 11022
 21033 51022=
KHEI 131753Z AUTO 30023G30KT 10SM CLR 04/M04 A3000 RMK AO2 PK WND 30032/1716
 SLP171 6//// T00391039 10039 21006 50009=
KISN 131752Z AUTO 32019G27KT 10SM CLR 04/M03 A3004 RMK AO2 PK WND 33027/1743
 SLP188 T00391033 10039 20006 51014=
KJMS 131756Z AUTO 34014KT 10SM OVC019 00/M02 A2981 RMK AO2 SLP110 T00001017
 10017 20000 51020=
KMIB 131756Z AUTO 32020KT 10SM BKN026 OVC032 02/M03 A2991 RMK AO2 SLP149
 T00171030 10017 20000 50012=
KMOT 131754Z 30016KT 10SM SCT023 OVC032 02/M03 A2992 RMK AO2 SLP148 T00221028
 10022 20006 51014=
KN60 131752Z AUTO 32019G31KT 01/M03 A2993 RMK AO1 PK WND 34031/1714 SLP153
 T00111033 10011 20000 51016=
KRDR 131756Z 01016KT 9SM OVC005 M03/M04 A2980 RMK AO2A SLP107 P0000 60000
 T10321039 11013 21032 51021 $=